createdAt,value
2019-05-17T00:01:22.363Z,5.30
2019-05-17T00:03:53.777Z,6.23
2019-05-17T00:06:24.574Z,6.30
2019-05-17T00:08:56.454Z,6.40
2019-05-17T00:11:27.959Z,7.00
2019-05-17T00:13:58.704Z,5.03
2019-05-17T00:16:29.708Z,5.70
2019-05-17T00:19:00.843Z,5.07
2019-05-17T00:21:31.568Z,6.53
2019-05-17T00:24:02.544Z,6.73
2019-05-17T00:26:33.344Z,7.70
2019-05-17T00:29:06.653Z,5.90
2019-05-17T00:31:37.158Z,5.63
2019-05-17T00:34:07.883Z,6.70
2019-05-17T00:36:38.677Z,6.47
2019-05-17T00:39:09.814Z,6.10
2019-05-17T00:41:40.543Z,6.37
2019-05-17T00:44:11.430Z,6.27
2019-05-17T00:46:42.456Z,5.93
2019-05-17T00:49:13.266Z,6.50
2019-05-17T00:51:44.223Z,7.23
2019-05-17T00:54:17.256Z,5.00
2019-05-17T00:56:47.575Z,6.60
2019-05-17T00:59:18.331Z,7.10
2019-05-17T01:01:49.075Z,5.27
2019-05-17T01:04:19.894Z,8.57
2019-05-17T01:06:50.767Z,6.17
2019-05-17T01:09:21.738Z,4.93
2019-05-17T01:11:52.472Z,5.00
2019-05-17T01:14:23.462Z,10.17
2019-05-17T01:16:56.360Z,5.33
2019-05-17T01:19:27.073Z,6.93
2019-05-17T01:21:58.049Z,6.03
2019-05-17T01:24:29.024Z,7.73
2019-05-17T01:27:00.077Z,6.27
2019-05-17T01:29:31.146Z,5.47
2019-05-17T01:32:02.366Z,6.90
2019-05-17T01:34:33.209Z,6.30
2019-05-17T01:37:06.339Z,4.83
2019-05-17T01:39:37.462Z,5.77
2019-05-17T01:42:09.567Z,6.57
2019-05-17T01:44:40.313Z,6.20
2019-05-17T01:47:11.514Z,7.00
2019-05-17T01:49:42.859Z,5.20
2019-05-17T01:52:13.833Z,7.70
2019-05-17T01:54:46.781Z,7.23
2019-05-17T01:57:17.093Z,7.37
2019-05-17T01:59:47.847Z,5.23
2019-05-17T02:02:23.144Z,6.67
2019-05-17T02:04:54.115Z,6.33
2019-05-17T02:07:26.716Z,5.70
2019-05-17T02:09:57.825Z,6.43
2019-05-17T02:12:28.623Z,7.53
2019-05-17T02:14:59.617Z,6.97
2019-05-17T02:17:30.573Z,7.40
2019-05-17T02:20:02.515Z,6.30
2019-05-17T02:22:33.315Z,7.10
2019-05-17T02:25:07.137Z,7.80
2019-05-17T02:27:41.181Z,6.70
2019-05-17T02:30:14.018Z,6.77
2019-05-17T02:32:43.443Z,7.33
2019-05-17T02:35:15.396Z,7.60
2019-05-17T02:37:46.355Z,6.03
2019-05-17T02:40:17.589Z,6.20
2019-05-17T02:42:48.865Z,8.07
2019-05-17T02:45:23.205Z,6.37
2019-05-17T02:47:53.802Z,7.30
2019-05-17T02:50:24.663Z,8.27
2019-05-17T02:52:55.713Z,9.30
2019-05-17T02:55:26.448Z,8.70
2019-05-17T02:57:57.849Z,9.67
2019-05-17T03:00:28.689Z,7.80
2019-05-17T03:03:03.037Z,10.00
2019-05-17T03:05:33.695Z,7.77
2019-05-17T03:08:05.121Z,9.67
2019-05-17T03:10:35.861Z,8.17
2019-05-17T03:13:06.669Z,9.40
2019-05-17T03:15:37.405Z,7.90
2019-05-17T03:18:08.212Z,7.93
2019-05-17T03:20:38.986Z,8.47
2019-05-17T03:23:12.429Z,8.33
2019-05-17T03:25:44.078Z,11.50
2019-05-17T03:28:15.036Z,9.13
2019-05-17T03:30:47.379Z,9.20
2019-05-17T03:33:18.584Z,11.17
2019-05-17T03:35:49.522Z,10.00
2019-05-17T03:38:22.785Z,9.80
2019-05-17T03:41:18.279Z,10.37
2019-05-17T03:43:26.495Z,9.50
2019-05-17T03:45:58.029Z,9.33
2019-05-17T03:48:28.868Z,9.47
2019-05-17T03:51:02.383Z,11.43
2019-05-17T03:53:33.451Z,8.87
2019-05-17T03:56:04.443Z,8.53
2019-05-17T03:58:35.255Z,9.23
2019-05-17T04:01:06.496Z,11.33
2019-05-17T04:03:37.530Z,10.17
2019-05-17T04:06:08.717Z,9.83
2019-05-17T04:08:42.253Z,9.40
2019-05-17T04:11:22.402Z,9.47
2019-05-17T04:13:45.617Z,10.43
2019-05-17T04:16:16.337Z,9.07
2019-05-17T04:18:47.305Z,9.60
2019-05-17T04:21:18.286Z,10.17
2019-05-17T04:23:49.147Z,11.03
2019-05-17T04:26:22.766Z,9.43
2019-05-17T04:28:53.471Z,10.27
2019-05-17T04:31:25.159Z,9.23
2019-05-17T04:33:56.151Z,9.70
2019-05-17T04:36:27.122Z,10.97
2019-05-17T04:38:58.129Z,10.80
2019-05-17T04:41:44.147Z,11.13
2019-05-17T04:44:02.766Z,10.00
2019-05-17T04:46:33.671Z,13.13
2019-05-17T04:49:05.575Z,10.80
2019-05-17T04:51:36.316Z,10.93
2019-05-17T04:54:07.088Z,11.37
2019-05-17T04:56:37.842Z,15.73
2019-05-17T04:59:09.073Z,13.30
2019-05-17T05:01:43.637Z,14.27
2019-05-17T05:04:15.508Z,18.80
2019-05-17T05:06:45.431Z,13.93
2019-05-17T05:09:16.259Z,21.90
2019-05-17T05:11:59.660Z,13.80
2019-05-17T05:14:19.863Z,13.50
2019-05-17T05:16:52.862Z,14.17
2019-05-17T05:19:23.717Z,13.90
2019-05-17T05:21:54.534Z,13.63
2019-05-17T05:24:26.070Z,14.03
2019-05-17T05:26:56.808Z,15.80
2019-05-17T05:29:27.888Z,14.80
2019-05-17T05:31:58.656Z,13.87
2019-05-17T05:34:29.652Z,14.23
2019-05-17T05:37:02.094Z,13.53
2019-05-17T05:39:33.305Z,14.27
2019-05-17T05:42:10.231Z,13.80
2019-05-17T05:44:37.296Z,13.63
2019-05-17T05:47:08.941Z,14.63
2019-05-17T05:49:39.945Z,14.10
2019-05-17T05:52:12.517Z,15.13
2019-05-17T05:54:43.386Z,15.53
2019-05-17T05:57:14.398Z,15.17
2019-05-17T05:59:45.237Z,15.80
2019-05-17T06:02:16.292Z,16.60
2019-05-17T06:04:47.347Z,16.07
2019-05-17T06:07:18.422Z,15.33
2019-05-17T06:09:51.612Z,16.60
2019-05-17T06:12:27.697Z,15.47
2019-05-17T06:14:54.530Z,16.03
2019-05-17T06:17:25.537Z,18.17
2019-05-17T06:19:56.297Z,16.33
2019-05-17T06:22:27.533Z,17.03
2019-05-17T06:24:58.314Z,17.23
2019-05-17T06:27:29.155Z,16.63
2019-05-17T06:30:01.514Z,17.00
2019-05-17T06:32:32.341Z,16.70
2019-05-17T06:35:03.176Z,16.73
2019-05-17T06:37:34.412Z,18.97
2019-05-17T06:40:05.665Z,16.60
2019-05-17T06:42:41.086Z,16.27
2019-05-17T06:45:09.324Z,16.70
2019-05-17T06:47:42.322Z,15.80
2019-05-17T06:50:14.251Z,16.07
2019-05-17T06:52:45.659Z,16.47
2019-05-17T06:55:16.493Z,16.23
2019-05-17T06:57:47.435Z,16.43
2019-05-17T07:00:23.422Z,15.67
2019-05-17T07:02:51.540Z,16.57
2019-05-17T07:05:26.485Z,15.70
2019-05-17T07:08:00.110Z,15.40
2019-05-17T07:10:30.383Z,14.67
2019-05-17T07:13:01.978Z,14.13
2019-05-17T07:15:43.671Z,14.80
2019-05-17T07:18:05.757Z,13.58
2019-05-17T07:20:36.491Z,14.35
2019-05-17T07:23:07.426Z,13.50
2019-05-17T07:25:39.707Z,13.00
2019-05-17T07:28:10.925Z,14.38
2019-05-17T07:30:42.876Z,13.55
2019-05-17T07:33:13.949Z,13.27
2019-05-17T07:35:44.948Z,13.72
2019-05-17T07:38:15.943Z,14.10
2019-05-17T07:40:46.995Z,14.13
2019-05-17T07:43:20.568Z,13.37
2019-05-17T07:45:50.711Z,13.27
2019-05-17T07:48:21.930Z,12.70
2019-05-17T07:50:53.145Z,11.63
2019-05-17T07:53:24.133Z,12.50
2019-05-17T07:55:54.903Z,13.57
2019-05-17T07:58:26.142Z,13.13
2019-05-17T08:00:57.384Z,12.20
2019-05-17T08:03:29.866Z,12.07
2019-05-17T08:06:00.724Z,15.10
2019-05-17T08:08:31.567Z,13.83
2019-05-17T08:11:02.506Z,12.90
2019-05-17T08:13:33.860Z,13.50
2019-05-17T08:16:04.693Z,12.70
2019-05-17T08:18:35.696Z,12.23
2019-05-17T08:21:06.523Z,11.03
2019-05-17T08:23:39.845Z,10.70
2019-05-17T08:26:10.805Z,8.40
2019-05-17T08:28:41.712Z,8.10
2019-05-17T08:31:12.435Z,9.00
2019-05-17T08:33:43.252Z,9.03
2019-05-17T08:36:14.304Z,8.37
2019-05-17T08:38:45.041Z,8.37
2019-05-17T08:41:16.010Z,11.07
2019-05-17T08:43:47.278Z,8.53
2019-05-17T08:46:19.922Z,7.87
2019-05-17T08:48:51.019Z,9.17
2019-05-17T08:51:21.919Z,8.10
2019-05-17T08:53:52.927Z,8.40
2019-05-17T08:56:23.948Z,7.83
2019-05-17T08:58:55.487Z,8.70
2019-05-17T09:01:26.961Z,8.40
2019-05-17T09:03:59.771Z,8.27
2019-05-17T09:06:30.168Z,7.43
2019-05-17T09:09:01.031Z,6.60
2019-05-17T09:11:33.321Z,6.70
2019-05-17T09:14:04.432Z,7.20
2019-05-17T09:16:35.170Z,7.10
2019-05-17T09:19:06.896Z,6.43
2019-05-17T09:21:39.757Z,6.53
2019-05-17T09:24:10.638Z,5.90
2019-05-17T09:26:42.352Z,6.07
2019-05-17T09:29:13.147Z,6.00
2019-05-17T09:31:44.105Z,5.87
2019-05-17T09:34:15.178Z,5.53
2019-05-17T09:36:45.905Z,5.77
2019-05-17T09:39:16.685Z,6.07
2019-05-17T09:41:50.164Z,5.30
2019-05-17T09:44:20.735Z,5.27
2019-05-17T09:46:51.900Z,4.73
2019-05-17T09:49:23.112Z,4.70
2019-05-17T09:51:53.852Z,5.60
2019-05-17T09:54:39.993Z,6.20
2019-05-17T09:57:00.306Z,5.90
2019-05-17T09:59:30.671Z,5.37
2019-05-17T10:02:01.696Z,6.03
2019-05-17T10:04:32.520Z,6.10
2019-05-17T10:07:03.290Z,5.80
2019-05-17T10:09:34.107Z,5.80
2019-05-17T10:12:05.109Z,4.70
2019-05-17T10:14:36.477Z,5.00
2019-05-17T10:17:09.691Z,6.10
2019-05-17T10:19:40.295Z,5.50
2019-05-17T10:22:11.773Z,6.07
2019-05-17T10:24:42.809Z,5.30
2019-05-17T10:27:14.691Z,5.90
2019-05-17T10:29:45.950Z,8.07
2019-05-17T10:32:17.046Z,5.47
2019-05-17T10:34:49.510Z,5.27
2019-05-17T10:37:20.749Z,5.58
2019-05-17T10:39:51.644Z,5.60
2019-05-17T10:42:22.968Z,5.80
2019-05-17T10:44:54.707Z,5.33
2019-05-17T10:47:25.712Z,6.03
2019-05-17T10:49:56.733Z,5.50
2019-05-17T10:52:29.729Z,5.93
2019-05-17T10:55:00.074Z,5.13
2019-05-17T10:57:30.875Z,6.47
2019-05-17T11:00:02.119Z,5.50
2019-05-17T11:02:34.800Z,4.77
2019-05-17T11:05:07.542Z,5.87
2019-05-17T11:07:38.369Z,5.08
2019-05-17T11:10:11.750Z,5.40
2019-05-17T11:12:42.742Z,5.87
2019-05-17T11:15:13.988Z,5.60
2019-05-17T11:17:44.712Z,6.20
2019-05-17T11:20:16.390Z,5.13
2019-05-17T11:22:47.319Z,5.25
2019-05-17T11:25:18.197Z,4.78
2019-05-17T11:27:49.028Z,4.62
2019-05-17T11:30:21.258Z,4.72
2019-05-17T11:32:52.209Z,4.37
2019-05-17T11:35:24.764Z,4.70
2019-05-17T11:37:55.593Z,4.78
2019-05-17T11:40:26.588Z,3.90
2019-05-17T11:42:57.913Z,4.47
2019-05-17T11:45:32.499Z,4.50
2019-05-17T11:48:01.783Z,4.77
2019-05-17T11:50:32.899Z,4.30
2019-05-17T11:53:04.283Z,3.92
2019-05-17T11:55:35.373Z,3.70
2019-05-17T11:58:06.179Z,4.70
2019-05-17T12:00:37.465Z,6.67
2019-05-17T12:03:08.871Z,4.40
2019-05-17T12:05:39.755Z,4.20
2019-05-17T12:08:10.755Z,4.15
2019-05-17T12:10:41.635Z,4.05
2019-05-17T12:13:13.485Z,3.80
2019-05-17T12:15:45.717Z,4.15
2019-05-17T12:18:16.590Z,4.00
2019-05-17T12:20:47.421Z,3.98
2019-05-17T12:23:18.154Z,4.42
2019-05-17T12:25:49.243Z,4.47
2019-05-17T12:28:19.997Z,3.70
2019-05-17T12:30:50.795Z,3.90
2019-05-17T12:33:21.773Z,3.60
2019-05-17T12:35:53.036Z,4.05
2019-05-17T12:38:23.760Z,5.45
2019-05-17T12:40:54.853Z,4.40
2019-05-17T12:43:26.218Z,4.47
2019-05-17T12:46:00.668Z,4.22
2019-05-17T12:48:30.236Z,4.35
2019-05-17T12:51:01.453Z,5.25
2019-05-17T12:53:32.537Z,5.47
2019-05-17T12:56:03.495Z,5.22
2019-05-17T12:58:34.250Z,6.17
2019-05-17T13:01:06.165Z,4.85
2019-05-17T13:03:37.120Z,4.65
2019-05-17T13:06:08.457Z,5.78
2019-05-17T13:08:39.223Z,5.70
2019-05-17T13:11:10.083Z,6.40
2019-05-17T13:13:40.817Z,6.45
2019-05-17T13:16:18.047Z,6.45
2019-05-17T13:18:44.466Z,4.97
2019-05-17T13:21:15.451Z,5.55
2019-05-17T13:23:46.653Z,5.50
2019-05-17T13:26:17.732Z,5.33
2019-05-17T13:28:48.464Z,7.03
2019-05-17T13:31:19.362Z,5.28
2019-05-17T13:33:50.574Z,5.95
2019-05-17T13:36:21.318Z,5.97
2019-05-17T13:38:52.079Z,5.57
2019-05-17T13:41:22.872Z,5.97
2019-05-17T13:43:53.752Z,5.62
2019-05-17T13:46:33.330Z,6.12
2019-05-17T13:48:59.401Z,6.12
2019-05-17T13:51:30.498Z,5.97
2019-05-17T13:54:01.458Z,6.40
2019-05-17T13:56:32.691Z,6.50
2019-05-17T13:59:03.503Z,5.65
2019-05-17T14:01:34.474Z,6.05
2019-05-17T14:04:05.505Z,5.83
2019-05-17T14:06:36.492Z,6.62
2019-05-17T14:09:07.643Z,6.35
2019-05-17T14:11:38.632Z,6.03
2019-05-17T14:14:09.865Z,6.00
2019-05-17T14:16:40.860Z,6.72
2019-05-17T14:19:11.663Z,6.40
2019-05-17T14:21:42.429Z,5.80
2019-05-17T14:24:13.381Z,5.75
2019-05-17T14:26:44.123Z,6.20
2019-05-17T14:29:16.659Z,6.83
2019-05-17T14:31:48.938Z,5.95
2019-05-17T14:34:20.764Z,6.03
2019-05-17T14:36:53.696Z,5.70
2019-05-17T14:39:26.206Z,5.72
2019-05-17T14:41:59.038Z,6.30
2019-05-17T14:44:30.825Z,9.00
2019-05-17T14:47:03.831Z,6.05
2019-05-17T14:49:38.015Z,5.50
2019-05-17T14:52:09.125Z,6.62
2019-05-17T14:54:39.855Z,5.62
2019-05-17T14:57:10.891Z,6.22
2019-05-17T14:59:43.713Z,7.20
2019-05-17T15:02:14.900Z,6.22
2019-05-17T15:04:45.874Z,5.92
2019-05-17T15:07:16.657Z,6.53
2019-05-17T15:09:47.637Z,5.92
2019-05-17T15:12:27.727Z,6.20
2019-05-17T15:14:51.351Z,6.50
2019-05-17T15:17:22.209Z,7.00
2019-05-17T15:19:52.943Z,5.15
2019-05-17T15:22:23.945Z,5.80
2019-05-17T15:24:54.754Z,5.80
2019-05-17T15:27:25.575Z,5.50
2019-05-17T15:29:56.305Z,6.42
2019-05-17T15:32:27.427Z,5.83
2019-05-17T15:34:58.477Z,6.55
2019-05-17T15:37:29.332Z,6.10
2019-05-17T15:40:00.344Z,5.65
2019-05-17T15:42:43.742Z,8.10
2019-05-17T15:45:05.506Z,6.67
2019-05-17T15:47:36.551Z,5.42
2019-05-17T15:50:07.801Z,5.40
2019-05-17T15:52:38.639Z,5.40
2019-05-17T15:55:09.760Z,6.05
2019-05-17T15:57:40.539Z,6.25
2019-05-17T16:00:12.933Z,5.72
2019-05-17T16:02:43.971Z,5.87
2019-05-17T16:05:15.729Z,5.50
2019-05-17T16:07:46.942Z,6.60
2019-05-17T16:10:18.302Z,6.08
2019-05-17T16:13:01.537Z,5.20
2019-05-17T16:15:21.992Z,7.95
2019-05-17T16:17:53.000Z,5.65
2019-05-17T16:20:26.948Z,5.55
2019-05-17T16:22:57.708Z,8.05
2019-05-17T16:25:28.677Z,5.67
2019-05-17T16:27:59.432Z,6.08
2019-05-17T16:30:31.439Z,5.22
2019-05-17T16:33:02.457Z,5.78
2019-05-17T16:35:33.442Z,5.47
2019-05-17T16:38:04.300Z,5.10
2019-05-17T16:40:35.357Z,5.25
2019-05-17T16:43:17.602Z,5.15
2019-05-17T16:45:38.929Z,6.65
2019-05-17T16:48:10.235Z,5.87
2019-05-17T16:50:41.042Z,5.85
2019-05-17T16:53:12.033Z,6.65
2019-05-17T16:55:42.988Z,5.25
2019-05-17T16:58:13.816Z,5.55
2019-05-17T17:00:44.706Z,4.78
2019-05-17T17:03:15.693Z,5.20
2019-05-17T17:05:46.523Z,5.10
2019-05-17T17:08:17.989Z,4.90
2019-05-17T17:10:49.319Z,5.20
2019-05-17T17:13:32.454Z,4.55
2019-05-17T17:15:53.752Z,4.90
2019-05-17T17:18:24.737Z,5.92
2019-05-17T17:20:55.464Z,4.90
2019-05-17T17:23:27.257Z,4.92
2019-05-17T17:25:58.065Z,5.30
2019-05-17T17:28:29.877Z,4.67
2019-05-17T17:31:00.909Z,5.25
2019-05-17T17:33:32.015Z,4.95
2019-05-17T17:36:02.856Z,4.78
2019-05-17T17:38:34.288Z,5.17
2019-05-17T17:41:05.094Z,5.40
2019-05-17T17:43:36.848Z,4.50
2019-05-17T17:46:07.933Z,4.65
2019-05-17T17:48:38.960Z,4.42
2019-05-17T17:51:10.959Z,6.53
2019-05-17T17:53:41.769Z,4.70
2019-05-17T17:56:13.635Z,4.20
2019-05-17T17:58:44.527Z,4.03
2019-05-17T18:01:15.569Z,4.50
2019-05-17T18:03:46.309Z,4.27
2019-05-17T18:06:17.279Z,4.07
2019-05-17T18:08:48.263Z,4.27
2019-05-17T18:11:19.366Z,4.07
2019-05-17T18:13:50.125Z,4.23
2019-05-17T18:16:21.050Z,3.80
2019-05-17T18:18:52.295Z,4.00
2019-05-17T18:21:23.173Z,3.87
2019-05-17T18:23:54.677Z,3.80
2019-05-17T18:26:26.746Z,4.17
2019-05-17T18:28:58.049Z,5.30
2019-05-17T18:31:29.228Z,5.57
2019-05-17T18:34:00.610Z,3.93
2019-05-17T18:36:31.405Z,4.00
2019-05-17T18:39:02.530Z,5.23
2019-05-17T18:41:35.041Z,4.17
2019-05-17T18:44:06.299Z,3.83
2019-05-17T18:46:37.365Z,5.57
2019-05-17T18:49:08.343Z,5.37
2019-05-17T18:51:39.376Z,4.07
2019-05-17T18:54:11.136Z,3.80
2019-05-17T18:56:42.127Z,4.97
2019-05-17T18:59:14.114Z,6.60
2019-05-17T19:01:44.979Z,3.80
2019-05-17T19:04:16.060Z,5.57
2019-05-17T19:06:46.831Z,4.33
2019-05-17T19:09:17.648Z,3.50
2019-05-17T19:11:48.520Z,3.80
2019-05-17T19:14:20.566Z,3.40
2019-05-17T19:16:51.306Z,4.23
2019-05-17T19:19:22.124Z,3.40
2019-05-17T19:21:53.406Z,3.40
2019-05-17T19:24:24.385Z,2.90
2019-05-17T19:26:55.653Z,3.60
2019-05-17T19:29:26.795Z,3.40
2019-05-17T19:31:57.607Z,3.03
2019-05-17T19:34:28.672Z,2.90
2019-05-17T19:36:59.738Z,3.40
2019-05-17T19:39:30.721Z,3.90
2019-05-17T19:42:01.583Z,3.30
2019-05-17T19:44:33.111Z,2.50
2019-05-17T19:47:03.918Z,2.63
2019-05-17T19:49:34.895Z,2.60
2019-05-17T19:52:05.938Z,2.60
2019-05-17T19:54:37.170Z,3.23
2019-05-17T19:57:08.355Z,2.40
2019-05-17T19:59:39.101Z,2.50
2019-05-17T20:02:10.205Z,2.63
2019-05-17T20:04:41.199Z,2.77
2019-05-17T20:07:11.942Z,2.83
2019-05-17T20:09:42.790Z,2.83
2019-05-17T20:12:13.521Z,3.20
2019-05-17T20:14:44.313Z,4.23
2019-05-17T20:17:15.075Z,3.63
2019-05-17T20:19:46.168Z,2.97
2019-05-17T20:22:16.987Z,4.03
2019-05-17T20:24:48.403Z,2.90
2019-05-17T20:27:19.130Z,3.37
2019-05-17T20:29:50.368Z,2.80
2019-05-17T20:32:21.624Z,2.73
2019-05-17T20:34:53.798Z,2.80
2019-05-17T20:37:25.207Z,2.83
2019-05-17T20:39:55.956Z,4.70
2019-05-17T20:42:26.738Z,3.73
2019-05-17T20:44:58.013Z,2.57
2019-05-17T20:47:29.921Z,2.83
2019-05-17T20:50:00.754Z,3.30
2019-05-17T20:52:32.116Z,2.60
2019-05-17T20:55:02.864Z,2.80
2019-05-17T20:57:33.674Z,2.37
2019-05-17T21:00:04.929Z,3.33
2019-05-17T21:02:37.489Z,3.63
2019-05-17T21:05:08.878Z,2.90
2019-05-17T21:07:39.615Z,2.93
2019-05-17T21:10:12.357Z,2.93
2019-05-17T21:12:43.413Z,3.80
2019-05-17T21:15:15.092Z,2.70
2019-05-17T21:17:46.171Z,4.30
2019-05-17T21:20:17.695Z,2.77
2019-05-17T21:22:48.443Z,2.90
2019-05-17T21:25:19.864Z,2.67
2019-05-17T21:27:50.594Z,3.73
2019-05-17T21:30:21.629Z,2.80
2019-05-17T21:32:52.975Z,3.00
2019-05-17T21:35:23.752Z,2.87
2019-05-17T21:37:54.855Z,3.67
2019-05-17T21:40:25.657Z,2.90
2019-05-17T21:42:56.396Z,3.10
2019-05-17T21:45:27.489Z,2.93
2019-05-17T21:47:59.200Z,3.10
2019-05-17T21:50:30.271Z,3.00
2019-05-17T21:53:01.823Z,2.80
2019-05-17T21:55:32.561Z,3.13
2019-05-17T21:58:03.297Z,3.20
2019-05-17T22:01:04.297Z,2.77
2019-05-17T22:03:35.109Z,4.30
2019-05-17T22:06:06.330Z,3.20
2019-05-17T22:08:37.307Z,2.80
2019-05-17T22:11:08.126Z,2.93
2019-05-17T22:13:38.848Z,3.83
2019-05-17T22:16:19.189Z,2.53
2019-05-17T22:18:42.581Z,2.73
2019-05-17T22:21:13.586Z,2.70
2019-05-17T22:23:44.594Z,2.70
2019-05-17T22:26:16.318Z,4.57
2019-05-17T22:28:47.041Z,2.87
2019-05-17T22:31:17.876Z,2.80
2019-05-17T22:33:49.843Z,2.63
2019-05-17T22:36:20.917Z,2.80
2019-05-17T22:38:51.757Z,2.20
2019-05-17T22:41:22.504Z,2.50
2019-05-17T22:43:53.255Z,2.30
2019-05-17T22:46:35.665Z,2.27
2019-05-17T22:48:57.439Z,3.67
2019-05-17T22:51:28.664Z,4.90
2019-05-17T22:54:00.588Z,2.43
2019-05-17T22:56:31.563Z,2.40
2019-05-17T22:59:02.296Z,3.57
2019-05-17T23:01:33.036Z,2.50
2019-05-17T23:04:03.788Z,3.37
2019-05-17T23:06:34.789Z,2.70
2019-05-17T23:09:06.662Z,2.90
2019-05-17T23:11:37.504Z,3.27
2019-05-17T23:14:08.309Z,4.70
2019-05-17T23:16:50.869Z,3.23
2019-05-17T23:19:11.751Z,3.00
2019-05-17T23:21:42.500Z,2.87
2019-05-17T23:24:14.205Z,3.53
2019-05-17T23:26:44.967Z,2.60
2019-05-17T23:29:15.733Z,2.80
2019-05-17T23:31:46.513Z,3.43
2019-05-17T23:34:17.893Z,3.53
2019-05-17T23:36:48.860Z,3.30
2019-05-17T23:39:19.615Z,2.90
2019-05-17T23:41:50.388Z,2.70
2019-05-17T23:44:21.343Z,2.97
2019-05-17T23:47:06.069Z,3.40
2019-05-17T23:49:24.855Z,3.77
2019-05-17T23:51:55.823Z,3.30
2019-05-17T23:54:27.083Z,3.17
2019-05-17T23:56:57.857Z,3.47
2019-05-17T23:59:28.966Z,3.30
